sensor_id;sensor_type;location;lat;lon;timestamp;pressure;altitude;pressure_sealevel;temperature;humidity
13314;BME280;6725;48.112;11.604;2023-05-23T00:01:34;94992.44;;;17.84;100.00
13314;BME280;6725;48.112;11.604;2023-05-23T00:04:02;94984.78;;;17.79;100.00
13314;BME280;6725;48.112;11.604;2023-05-23T00:06:28;94981.72;;;17.77;100.00
13314;BME280;6725;48.112;11.604;2023-05-23T00:08:53;94984.94;;;17.75;100.00
13314;BME280;6725;48.112;11.604;2023-05-23T00:11:19;94980.16;;;17.76;100.00
13314;BME280;6725;48.112;11.604;2023-05-23T00:13:45;94982.63;;;17.74;100.00
13314;BME280;6725;48.112;11.604;2023-05-23T00:16:10;94995.38;;;17.71;100.00
13314;BME280;6725;48.112;11.604;2023-05-23T00:18:37;94989.34;;;17.64;100.00
13314;BME280;6725;48.112;11.604;2023-05-23T00:21:02;94991.50;;;17.60;100.00
13314;BME280;6725;48.112;11.604;2023-05-23T00:23:28;94990.28;;;17.61;100.00
13314;BME280;6725;48.112;11.604;2023-05-23T00:25:54;94995.34;;;17.62;100.00
13314;BME280;6725;48.112;11.604;2023-05-23T00:28:20;94990.28;;;17.61;100.00
13314;BME280;6725;48.112;11.604;2023-05-23T00:30:46;94991.50;;;17.60;100.00
13314;BME280;6725;48.112;11.604;2023-05-23T00:33:14;94995.78;;;17.61;100.00
13314;BME280;6725;48.112;11.604;2023-05-23T00:35:41;94989.03;;;17.62;100.00
13314;BME280;6725;48.112;11.604;2023-05-23T00:38:06;94988.44;;;17.67;100.00
13314;BME280;6725;48.112;11.604;2023-05-23T00:40:32;94985.22;;;17.68;100.00
13314;BME280;6725;48.112;11.604;2023-05-23T00:42:59;94986.31;;;17.71;100.00
13314;BME280;6725;48.112;11.604;2023-05-23T00:45:24;94993.69;;;17.74;100.00
13314;BME280;6725;48.112;11.604;2023-05-23T00:47:50;94994.28;;;17.78;100.00
13314;BME280;6725;48.112;11.604;2023-05-23T00:50:17;94990.00;;;17.77;100.00
13314;BME280;6725;48.112;11.604;2023-05-23T00:52:44;94990.00;;;17.77;100.00
13314;BME280;6725;48.112;11.604;2023-05-23T00:55:11;94988.75;;;17.78;100.00
13314;BME280;6725;48.112;11.604;2023-05-23T00:57:37;94992.75;;;17.77;100.00
13314;BME280;6725;48.112;11.604;2023-05-23T01:00:06;94991.81;;;17.80;100.00
13314;BME280;6725;48.112;11.604;2023-05-23T01:02:33;94997.50;;;17.85;100.00
13314;BME280;6725;48.112;11.604;2023-05-23T01:05:00;94996.31;;;17.86;100.00
13314;BME280;6725;48.112;11.604;2023-05-23T01:07:26;94994.28;;;17.87;100.00
13314;BME280;6725;48.112;11.604;2023-05-23T01:09:52;94994.00;;;17.85;100.00
13314;BME280;6725;48.112;11.604;2023-05-23T01:15:14;95000.13;;;17.89;100.00
13314;BME280;6725;48.112;11.604;2023-05-23T01:20:08;95007.19;;;17.90;100.00
13314;BME280;6725;48.112;11.604;2023-05-23T01:23:02;95005.66;;;17.89;100.00
13314;BME280;6725;48.112;11.604;2023-05-23T01:28:00;95016.72;;;17.89;100.00
13314;BME280;6725;48.112;11.604;2023-05-23T01:30:28;95015.78;;;17.92;100.00
13314;BME280;6725;48.112;11.604;2023-05-23T01:32:55;95018.22;;;17.90;100.00
13314;BME280;6725;48.112;11.604;2023-05-23T01:35:24;95010.88;;;17.87;100.00
13314;BME280;6725;48.112;11.604;2023-05-23T01:37:52;95017.63;;;17.86;100.00
13314;BME280;6725;48.112;11.604;2023-05-23T01:40:18;95013.94;;;17.89;100.00
13314;BME280;6725;48.112;11.604;2023-05-23T01:42:43;95006.28;;;17.93;100.00
13314;BME280;6725;48.112;11.604;2023-05-23T01:45:09;95007.97;;;17.90;100.00
13314;BME280;6725;48.112;11.604;2023-05-23T01:47:35;95011.47;;;17.91;100.00
13314;BME280;6725;48.112;11.604;2023-05-23T01:50:02;95019.75;;;17.91;100.00
13314;BME280;6725;48.112;11.604;2023-05-23T01:52:28;95016.72;;;17.89;100.00
13314;BME280;6725;48.112;11.604;2023-05-23T01:54:54;95017.00;;;17.82;100.00
13314;BME280;6725;48.112;11.604;2023-05-23T01:57:21;95021.91;;;17.87;100.00
13314;BME280;6725;48.112;11.604;2023-05-23T01:59:46;95026.97;;;17.88;100.00
13314;BME280;6725;48.112;11.604;2023-05-23T02:02:12;95023.94;;;17.86;100.00
13314;BME280;6725;48.112;11.604;2023-05-23T02:04:37;95025.59;;;17.84;100.00
13314;BME280;6725;48.112;11.604;2023-05-23T02:07:02;95027.91;;;17.85;100.00
13314;BME280;6725;48.112;11.604;2023-05-23T02:09:28;95026.53;;;17.90;100.00
13314;BME280;6725;48.112;11.604;2023-05-23T02:11:53;95028.69;;;17.86;100.00
13314;BME280;6725;48.112;11.604;2023-05-23T02:14:20;95034.66;;;17.84;100.00
13314;BME280;6725;48.112;11.604;2023-05-23T02:16:45;95034.81;;;17.81;100.00
13314;BME280;6725;48.112;11.604;2023-05-23T02:19:10;95033.25;;;17.80;100.00
13314;BME280;6725;48.112;11.604;2023-05-23T02:21:37;95024.34;;;17.76;100.00
13314;BME280;6725;48.112;11.604;2023-05-23T02:24:02;95040.63;;;17.74;100.00
13314;BME280;6725;48.112;11.604;2023-05-23T02:26:27;95044.31;;;17.71;100.00
13314;BME280;6725;48.112;11.604;2023-05-23T02:28:53;95034.78;;;17.63;100.00
13314;BME280;6725;48.112;11.604;2023-05-23T02:31:18;95036.91;;;17.59;100.00
13314;BME280;6725;48.112;11.604;2023-05-23T02:33:43;95040.44;;;17.50;100.00
13314;BME280;6725;48.112;11.604;2023-05-23T02:36:09;95033.50;;;17.46;100.00
13314;BME280;6725;48.112;11.604;2023-05-23T02:38:34;95033.66;;;17.42;100.00
13314;BME280;6725;48.112;11.604;2023-05-23T02:40:59;95038.41;;;17.42;100.00
13314;BME280;6725;48.112;11.604;2023-05-23T02:43:25;95040.81;;;17.40;100.00
13314;BME280;6725;48.112;11.604;2023-05-23T02:45:50;95048.16;;;17.34;100.00
13314;BME280;6725;48.112;11.604;2023-05-23T02:48:16;95042.94;;;17.27;100.00
13314;BME280;6725;48.112;11.604;2023-05-23T02:50:41;95044.59;;;17.24;100.00
13314;BME280;6725;48.112;11.604;2023-05-23T02:53:06;95048.88;;;17.16;100.00
13314;BME280;6725;48.112;11.604;2023-05-23T02:55:32;95051.47;;;17.11;100.00
13314;BME280;6725;48.112;11.604;2023-05-23T02:57:57;95051.13;;;17.09;100.00
13314;BME280;6725;48.112;11.604;2023-05-23T03:00:23;95042.22;;;17.05;100.00
13314;BME280;6725;48.112;11.604;2023-05-23T03:02:48;95042.94;;;16.96;100.00
13314;BME280;6725;48.112;11.604;2023-05-23T03:05:14;95040.44;;;16.89;100.00
13314;BME280;6725;48.112;11.604;2023-05-23T03:07:39;95038.47;;;16.90;100.00
13314;BME280;6725;48.112;11.604;2023-05-23T03:10:05;95033.53;;;16.85;100.00
13314;BME280;6725;48.112;11.604;2023-05-23T03:12:31;95033.22;;;16.83;100.00
13314;BME280;6725;48.112;11.604;2023-05-23T03:14:56;95027.94;;;16.67;100.00
13314;BME280;6725;48.112;11.604;2023-05-23T03:17:24;95028.84;;;16.64;100.00
13314;BME280;6725;48.112;11.604;2023-05-23T03:19:49;95027.16;;;16.66;100.00
13314;BME280;6725;48.112;11.604;2023-05-23T03:22:14;95019.97;;;16.69;100.00
13314;BME280;6725;48.112;11.604;2023-05-23T03:24:40;95020.13;;;16.65;100.00
13314;BME280;6725;48.112;11.604;2023-05-23T03:27:05;95020.88;;;16.66;100.00
13314;BME280;6725;48.112;11.604;2023-05-23T03:29:30;95018.88;;;16.66;100.00
13314;BME280;6725;48.112;11.604;2023-05-23T03:31:56;95014.16;;;16.67;100.00
13314;BME280;6725;48.112;11.604;2023-05-23T03:34:22;95016.75;;;16.70;100.00
13314;BME280;6725;48.112;11.604;2023-05-23T03:36:48;95017.28;;;16.78;100.00
13314;BME280;6725;48.112;11.604;2023-05-23T03:39:13;95021.22;;;16.77;100.00
13314;BME280;6725;48.112;11.604;2023-05-23T03:41:38;95028.94;;;16.82;100.00
13314;BME280;6725;48.112;11.604;2023-05-23T03:44:04;95024.34;;;16.88;100.00
13314;BME280;6725;48.112;11.604;2023-05-23T03:46:29;95021.91;;;16.90;100.00
13314;BME280;6725;48.112;11.604;2023-05-23T03:48:54;95018.91;;;16.97;100.00
13314;BME280;6725;48.112;11.604;2023-05-23T03:51:20;95007.84;;;16.97;100.00
13314;BME280;6725;48.112;11.604;2023-05-23T03:53:45;95016.44;;;16.99;100.00
13314;BME280;6725;48.112;11.604;2023-05-23T03:56:11;95022.13;;;17.04;100.00
13314;BME280;6725;48.112;11.604;2023-05-23T03:58:36;95027.53;;;17.08;100.00
13314;BME280;6725;48.112;11.604;2023-05-23T04:01:02;95021.56;;;17.09;100.00
13314;BME280;6725;48.112;11.604;2023-05-23T04:03:28;95026.13;;;17.12;100.00
13314;BME280;6725;48.112;11.604;2023-05-23T04:05:57;95021.84;;;17.11;100.00
13314;BME280;6725;48.112;11.604;2023-05-23T04:08:22;95026.00;;;17.16;100.00
13314;BME280;6725;48.112;11.604;2023-05-23T04:10:48;95032.00;;;17.23;100.00
13314;BME280;6725;48.112;11.604;2023-05-23T04:13:14;95034.94;;;17.29;100.00
13314;BME280;6725;48.112;11.604;2023-05-23T04:15:42;95038.34;;;17.33;100.00
13314;BME280;6725;48.112;11.604;2023-05-23T04:18:08;95041.75;;;17.37;100.00
13314;BME280;6725;48.112;11.604;2023-05-23T04:20:34;95035.03;;;17.47;100.00
13314;BME280;6725;48.112;11.604;2023-05-23T04:22:59;95039.38;;;17.57;100.00
13314;BME280;6725;48.112;11.604;2023-05-23T04:25:25;95045.53;;;17.79;100.00
13314;BME280;6725;48.112;11.604;2023-05-23T04:27:51;95053.41;;;17.98;100.00
13314;BME280;6725;48.112;11.604;2023-05-23T04:30:18;95073.22;;;18.15;100.00
13314;BME280;6725;48.112;11.604;2023-05-23T04:32:43;95080.28;;;18.16;100.00
13314;BME280;6725;48.112;11.604;2023-05-23T04:35:10;95089.66;;;18.18;100.00
13314;BME280;6725;48.112;11.604;2023-05-23T04:37:36;95090.44;;;18.19;100.00
13314;BME280;6725;48.112;11.604;2023-05-23T04:40:02;95099.34;;;18.23;100.00
13314;BME280;6725;48.112;11.604;2023-05-23T04:42:28;95090.44;;;18.19;100.00
13314;BME280;6725;48.112;11.604;2023-05-23T04:44:53;95096.56;;;18.05;100.00
13314;BME280;6725;48.112;11.604;2023-05-23T04:47:21;95095.94;;;18.01;100.00
13314;BME280;6725;48.112;11.604;2023-05-23T04:49:48;95089.34;;;17.98;100.00
13314;BME280;6725;48.112;11.604;2023-05-23T04:52:14;95087.63;;;17.92;100.00
13314;BME280;6725;48.112;11.604;2023-05-23T04:54:43;95085.47;;;17.87;100.00
13314;BME280;6725;48.112;11.604;2023-05-23T04:57:11;95090.06;;;17.90;100.00
13314;BME280;6725;48.112;11.604;2023-05-23T04:59:37;95078.41;;;17.86;100.00
13314;BME280;6725;48.112;11.604;2023-05-23T05:02:03;95085.47;;;17.87;100.00
13314;BME280;6725;48.112;11.604;2023-05-23T05:04:29;95076.72;;;17.88;100.00
13314;BME280;6725;48.112;11.604;2023-05-23T05:06:55;95083.31;;;17.91;100.00
13314;BME280;6725;48.112;11.604;2023-05-23T05:09:21;95095.94;;;18.01;100.00
13314;BME280;6725;48.112;11.604;2023-05-23T05:11:47;95093.03;;;18.04;100.00
13314;BME280;6725;48.112;11.604;2023-05-23T05:14:12;95093.66;;;18.08;100.00
13314;BME280;6725;48.112;11.604;2023-05-23T05:16:37;95090.44;;;18.19;100.00
13314;BME280;6725;48.112;11.604;2023-05-23T05:19:03;95090.44;;;18.28;100.00
13314;BME280;6725;48.112;11.604;2023-05-23T05:21:29;95096.63;;;18.41;100.00
13314;BME280;6725;48.112;11.604;2023-05-23T05:23:55;95095.38;;;18.42;100.00
13314;BME280;6725;48.112;11.604;2023-05-23T05:26:21;95102.16;;;18.50;100.00
13314;BME280;6725;48.112;11.604;2023-05-23T05:28:47;95090.00;;;18.65;100.00
13314;BME280;6725;48.112;11.604;2023-05-23T05:31:13;95106.72;;;18.89;100.00
13314;BME280;6725;48.112;11.604;2023-05-23T05:33:40;95109.00;;;19.08;100.00
13314;BME280;6725;48.112;11.604;2023-05-23T05:36:06;95109.31;;;19.61;100.00
13314;BME280;6725;48.112;11.604;2023-05-23T05:38:31;95108.22;;;20.00;100.00
13314;BME280;6725;48.112;11.604;2023-05-23T05:40:57;95104.69;;;20.23;100.00
13314;BME280;6725;48.112;11.604;2023-05-23T05:43:22;95111.84;;;20.39;100.00
13314;BME280;6725;48.112;11.604;2023-05-23T05:45:48;95112.81;;;20.50;100.00
13314;BME280;6725;48.112;11.604;2023-05-23T05:48:13;95112.50;;;20.72;100.00
13314;BME280;6725;48.112;11.604;2023-05-23T05:50:38;95118.59;;;20.99;100.00
13314;BME280;6725;48.112;11.604;2023-05-23T05:53:04;95118.88;;;21.01;100.00
13314;BME280;6725;48.112;11.604;2023-05-23T05:55:29;95115.22;;;21.53;100.00
13314;BME280;6725;48.112;11.604;2023-05-23T05:57:55;95121.47;;;22.12;100.00
13314;BME280;6725;48.112;11.604;2023-05-23T06:00:20;95122.44;;;22.64;100.00
13314;BME280;6725;48.112;11.604;2023-05-23T06:02:46;95122.50;;;22.89;100.00
13314;BME280;6725;48.112;11.604;2023-05-23T06:05:12;95127.56;;;22.91;100.00
13314;BME280;6725;48.112;11.604;2023-05-23T06:07:39;95133.63;;;22.89;100.00
13314;BME280;6725;48.112;11.604;2023-05-23T06:10:05;95129.72;;;23.01;100.00
13314;BME280;6725;48.112;11.604;2023-05-23T06:12:31;95128.31;;;23.11;100.00
13314;BME280;6725;48.112;11.604;2023-05-23T06:14:56;95131.63;;;24.34;100.00
13314;BME280;6725;48.112;11.604;2023-05-23T06:17:22;95132.28;;;24.60;100.00
13314;BME280;6725;48.112;11.604;2023-05-23T06:19:47;95127.69;;;25.10;100.00
13314;BME280;6725;48.112;11.604;2023-05-23T06:22:12;95125.25;;;25.89;100.00
13314;BME280;6725;48.112;11.604;2023-05-23T06:24:38;95126.28;;;26.19;100.00
13314;BME280;6725;48.112;11.604;2023-05-23T06:27:03;95128.22;;;26.68;100.00
13314;BME280;6725;48.112;11.604;2023-05-23T06:29:29;95121.84;;;26.62;100.00
13314;BME280;6725;48.112;11.604;2023-05-23T06:31:55;95135.41;;;25.81;100.00
13314;BME280;6725;48.112;11.604;2023-05-23T06:34:20;95125.47;;;26.35;100.00
13314;BME280;6725;48.112;11.604;2023-05-23T06:36:46;95127.94;;;26.55;100.00
13314;BME280;6725;48.112;11.604;2023-05-23T06:39:12;95126.34;;;27.44;100.00
13314;BME280;6725;48.112;11.604;2023-05-23T06:41:38;95122.34;;;27.69;100.00
13314;BME280;6725;48.112;11.604;2023-05-23T06:44:03;95132.56;;;27.61;100.00
13314;BME280;6725;48.112;11.604;2023-05-23T06:46:29;95130.53;;;28.26;100.00
13314;BME280;6725;48.112;11.604;2023-05-23T06:48:54;95128.78;;;28.23;100.00
13314;BME280;6725;48.112;11.604;2023-05-23T06:51:20;95130.25;;;27.65;100.00
13314;BME280;6725;48.112;11.604;2023-05-23T06:53:45;95140.56;;;27.92;100.00
13314;BME280;6725;48.112;11.604;2023-05-23T06:56:10;95131.47;;;28.64;100.00
13314;BME280;6725;48.112;11.604;2023-05-23T06:58:36;95143.19;;;28.38;100.00
13314;BME280;6725;48.112;11.604;2023-05-23T07:01:01;95146.19;;;28.16;100.00
13314;BME280;6725;48.112;11.604;2023-05-23T07:03:26;95147.94;;;28.55;100.00
13314;BME280;6725;48.112;11.604;2023-05-23T07:05:52;95148.47;;;29.75;100.00
13314;BME280;6725;48.112;11.604;2023-05-23T07:08:17;95142.19;;;28.66;100.00
13314;BME280;6725;48.112;11.604;2023-05-23T07:10:42;95143.41;;;27.87;100.00
13314;BME280;6725;48.112;11.604;2023-05-23T07:13:08;95148.91;;;27.22;100.00
13314;BME280;6725;48.112;11.604;2023-05-23T07:15:33;95151.50;;;26.03;100.00
13314;BME280;6725;48.112;11.604;2023-05-23T07:17:58;95150.72;;;26.08;100.00
13314;BME280;6725;48.112;11.604;2023-05-23T07:20:24;95148.38;;;25.62;100.00
13314;BME280;6725;48.112;11.604;2023-05-23T07:22:49;95145.84;;;26.41;100.00
13314;BME280;6725;48.112;11.604;2023-05-23T07:25:16;95158.56;;;26.42;100.00
13314;BME280;6725;48.112;11.604;2023-05-23T07:27:41;95160.56;;;26.64;100.00
13314;BME280;6725;48.112;11.604;2023-05-23T07:30:07;95163.69;;;25.83;100.00
13314;BME280;6725;48.112;11.604;2023-05-23T07:32:34;95162.25;;;25.12;100.00
13314;BME280;6725;48.112;11.604;2023-05-23T07:35:00;95168.09;;;25.20;100.00
13314;BME280;6725;48.112;11.604;2023-05-23T07:37:25;95164.25;;;25.06;100.00
13314;BME280;6725;48.112;11.604;2023-05-23T07:39:52;95165.03;;;25.07;100.00
13314;BME280;6725;48.112;11.604;2023-05-23T07:42:17;95159.91;;;24.47;100.00
13314;BME280;6725;48.112;11.604;2023-05-23T07:44:42;95163.56;;;24.22;100.00
13314;BME280;6725;48.112;11.604;2023-05-23T07:47:08;95165.44;;;24.05;100.00
13314;BME280;6725;48.112;11.604;2023-05-23T07:49:33;95163.44;;;23.49;100.00
13314;BME280;6725;48.112;11.604;2023-05-23T07:51:59;95162.13;;;23.75;100.00
13314;BME280;6725;48.112;11.604;2023-05-23T07:54:25;95162.81;;;24.27;100.00
13314;BME280;6725;48.112;11.604;2023-05-23T07:56:52;95162.63;;;24.36;100.00
13314;BME280;6725;48.112;11.604;2023-05-23T07:59:18;95169.69;;;24.31;100.00
13314;BME280;6725;48.112;11.604;2023-05-23T08:01:43;95160.47;;;24.20;100.00
13314;BME280;6725;48.112;11.604;2023-05-23T08:04:09;95163.53;;;23.91;100.00
13314;BME280;6725;48.112;11.604;2023-05-23T08:06:34;95172.69;;;23.66;100.00
13314;BME280;6725;48.112;11.604;2023-05-23T08:09:00;95170.97;;;23.68;100.00
13314;BME280;6725;48.112;11.604;2023-05-23T08:11:26;95175.13;;;23.53;100.00
13314;BME280;6725;48.112;11.604;2023-05-23T08:13:53;95182.19;;;23.74;100.00
13314;BME280;6725;48.112;11.604;2023-05-23T08:16:18;95181.44;;;23.53;100.00
13314;BME280;6725;48.112;11.604;2023-05-23T08:18:43;95169.63;;;23.13;100.00
13314;BME280;6725;48.112;11.604;2023-05-23T08:21:09;95182.84;;;23.18;100.00
13314;BME280;6725;48.112;11.604;2023-05-23T08:23:34;95188.66;;;23.40;100.00
13314;BME280;6725;48.112;11.604;2023-05-23T08:26:00;95187.31;;;23.30;100.00
13314;BME280;6725;48.112;11.604;2023-05-23T08:28:25;95184.81;;;22.92;100.00
13314;BME280;6725;48.112;11.604;2023-05-23T08:30:51;95194.28;;;22.60;100.00
13314;BME280;6725;48.112;11.604;2023-05-23T08:33:16;95188.84;;;22.51;100.00
13314;BME280;6725;48.112;11.604;2023-05-23T08:35:41;95191.22;;;22.58;100.00
13314;BME280;6725;48.112;11.604;2023-05-23T08:38:08;95199.78;;;22.39;100.00
13314;BME280;6725;48.112;11.604;2023-05-23T08:40:35;95198.72;;;22.52;100.00
13314;BME280;6725;48.112;11.604;2023-05-23T08:43:00;95194.78;;;22.43;100.00
13314;BME280;6725;48.112;11.604;2023-05-23T08:45:26;95199.69;;;22.48;100.00
13314;BME280;6725;48.112;11.604;2023-05-23T08:47:54;95203.28;;;22.89;100.00
13314;BME280;6725;48.112;11.604;2023-05-23T08:50:20;95204.69;;;22.99;100.00
13314;BME280;6725;48.112;11.604;2023-05-23T08:52:57;95204.72;;;22.85;100.00
13314;BME280;6725;48.112;11.604;2023-05-23T08:55:24;95199.84;;;23.00;100.00
13314;BME280;6725;48.112;11.604;2023-05-23T08:57:53;95208.94;;;23.20;100.00
13314;BME280;6725;48.112;11.604;2023-05-23T09:00:19;95200.75;;;23.11;100.00
13314;BME280;6725;48.112;11.604;2023-05-23T09:02:45;95200.19;;;23.27;100.00
13314;BME280;6725;48.112;11.604;2023-05-23T09:05:12;95206.56;;;23.08;100.00
13314;BME280;6725;48.112;11.604;2023-05-23T09:07:38;95207.38;;;23.34;100.00
13314;BME280;6725;48.112;11.604;2023-05-23T09:10:05;95204.47;;;23.48;100.00
13314;BME280;6725;48.112;11.604;2023-05-23T09:12:31;95206.06;;;23.55;100.00
13314;BME280;6725;48.112;11.604;2023-05-23T09:14:57;95207.44;;;23.65;100.00
13314;BME280;6725;48.112;11.604;2023-05-23T09:17:23;95202.00;;;24.07;100.00
13314;BME280;6725;48.112;11.604;2023-05-23T09:19:48;95208.53;;;25.24;100.00
13314;BME280;6725;48.112;11.604;2023-05-23T09:22:14;95210.22;;;25.70;100.00
13314;BME280;6725;48.112;11.604;2023-05-23T09:24:39;95206.88;;;25.60;100.00
13314;BME280;6725;48.112;11.604;2023-05-23T09:27:05;95217.38;;;25.12;100.00
13314;BME280;6725;48.112;11.604;2023-05-23T09:29:31;95217.56;;;24.92;100.00
13314;BME280;6725;48.112;11.604;2023-05-23T09:32:13;95217.03;;;24.88;100.00
13314;BME280;6725;48.112;11.604;2023-05-23T09:34:58;95216.72;;;24.38;100.00
13314;BME280;6725;48.112;11.604;2023-05-23T09:37:30;95215.03;;;24.21;100.00
13314;BME280;6725;48.112;11.604;2023-05-23T09:40:01;95202.25;;;24.40;100.00
13314;BME280;6725;48.112;11.604;2023-05-23T09:42:32;95202.25;;;24.82;100.00
13314;BME280;6725;48.112;11.604;2023-05-23T09:44:58;95203.88;;;24.57;100.00
13314;BME280;6725;48.112;11.604;2023-05-23T09:47:24;95207.69;;;24.18;100.00
13314;BME280;6725;48.112;11.604;2023-05-23T09:49:50;95212.22;;;24.15;100.00
13314;BME280;6725;48.112;11.604;2023-05-23T09:52:15;95216.94;;;23.78;100.00
13314;BME280;6725;48.112;11.604;2023-05-23T09:54:42;95214.53;;;23.66;100.00
13314;BME280;6725;48.112;11.604;2023-05-23T09:57:11;95216.03;;;23.61;100.00
13314;BME280;6725;48.112;11.604;2023-05-23T09:59:47;95214.47;;;23.35;100.00
13314;BME280;6725;48.112;11.604;2023-05-23T10:02:15;95221.94;;;23.03;100.00
13314;BME280;6725;48.112;11.604;2023-05-23T10:04:41;95220.19;;;23.06;100.00
13314;BME280;6725;48.112;11.604;2023-05-23T10:07:13;95222.50;;;23.07;100.00
13314;BME280;6725;48.112;11.604;2023-05-23T10:09:46;95215.88;;;23.25;100.00
13314;BME280;6725;48.112;11.604;2023-05-23T10:14:50;95205.81;;;23.33;100.00
13314;BME280;6725;48.112;11.604;2023-05-23T10:17:18;95199.06;;;23.39;100.00
13314;BME280;6725;48.112;11.604;2023-05-23T10:19:53;95199.44;;;23.78;100.00
13314;BME280;6725;48.112;11.604;2023-05-23T10:22:23;95201.25;;;24.06;100.00
13314;BME280;6725;48.112;11.604;2023-05-23T10:24:49;95202.19;;;23.98;100.00
13314;BME280;6725;48.112;11.604;2023-05-23T10:27:14;95202.84;;;23.87;100.00
13314;BME280;6725;48.112;11.604;2023-05-23T10:29:40;95204.66;;;23.65;100.00
13314;BME280;6725;48.112;11.604;2023-05-23T10:32:06;95199.22;;;23.30;100.00
13314;BME280;6725;48.112;11.604;2023-05-23T10:35:13;95204.03;;;23.10;100.00
13314;BME280;6725;48.112;11.604;2023-05-23T10:37:51;95199.56;;;23.18;100.00
13314;BME280;6725;48.112;11.604;2023-05-23T10:42:53;95199.34;;;23.01;100.00
13314;BME280;6725;48.112;11.604;2023-05-23T10:45:21;95202.50;;;23.09;100.00
13314;BME280;6725;48.112;11.604;2023-05-23T10:47:48;95204.78;;;23.30;100.00
13314;BME280;6725;48.112;11.604;2023-05-23T10:50:32;95195.44;;;23.59;100.00
13314;BME280;6725;48.112;11.604;2023-05-23T10:53:02;95206.94;;;23.41;100.00
13314;BME280;6725;48.112;11.604;2023-05-23T10:55:32;95211.94;;;23.37;100.00
13314;BME280;6725;48.112;11.604;2023-05-23T10:58:18;95217.06;;;23.18;100.00
13314;BME280;6725;48.112;11.604;2023-05-23T11:01:00;95218.88;;;23.01;100.00
13314;BME280;6725;48.112;11.604;2023-05-23T11:06:02;95212.53;;;24.23;100.00
13314;BME280;6725;48.112;11.604;2023-05-23T11:08:36;95208.00;;;25.15;100.00
13314;BME280;6725;48.112;11.604;2023-05-23T11:11:02;95196.53;;;26.27;100.00
13314;BME280;6725;48.112;11.604;2023-05-23T11:13:57;95194.47;;;26.66;100.00
13314;BME280;6725;48.112;11.604;2023-05-23T11:16:28;95190.78;;;27.04;100.00
13314;BME280;6725;48.112;11.604;2023-05-23T11:21:59;95175.28;;;27.89;100.00
13314;BME280;6725;48.112;11.604;2023-05-23T11:27:14;95169.69;;;27.89;100.00
13314;BME280;6725;48.112;11.604;2023-05-23T11:29:40;95169.06;;;28.61;100.00
13314;BME280;6725;48.112;11.604;2023-05-23T11:32:09;95169.84;;;28.02;100.00
13314;BME280;6725;48.112;11.604;2023-05-23T11:34:37;95164.91;;;28.08;100.00
13314;BME280;6725;48.112;11.604;2023-05-23T11:37:03;95165.81;;;27.92;100.00
13314;BME280;6725;48.112;11.604;2023-05-23T11:39:28;95177.66;;;27.74;100.00
13314;BME280;6725;48.112;11.604;2023-05-23T11:42:03;95164.81;;;28.19;100.00
13314;BME280;6725;48.112;11.604;2023-05-23T11:44:28;95169.00;;;27.72;100.00
13314;BME280;6725;48.112;11.604;2023-05-23T11:47:06;95160.81;;;28.09;100.00
13314;BME280;6725;48.112;11.604;2023-05-23T11:49:37;95165.16;;;27.35;100.00
13314;BME280;6725;48.112;11.604;2023-05-23T11:52:03;95156.97;;;26.85;100.00
13314;BME280;6725;48.112;11.604;2023-05-23T11:54:30;95157.03;;;26.63;100.00
13314;BME280;6725;48.112;11.604;2023-05-23T11:56:56;95154.75;;;26.40;100.00
13314;BME280;6725;48.112;11.604;2023-05-23T11:59:23;95149.34;;;26.58;100.00
13314;BME280;6725;48.112;11.604;2023-05-23T12:01:50;95151.41;;;26.58;100.00
13314;BME280;6725;48.112;11.604;2023-05-23T12:04:16;95161.41;;;26.26;100.00
13314;BME280;6725;48.112;11.604;2023-05-23T12:06:44;95162.66;;;26.41;100.00
13314;BME280;6725;48.112;11.604;2023-05-23T12:09:10;95147.41;;;26.04;100.00
13314;BME280;6725;48.112;11.604;2023-05-23T12:11:38;95155.28;;;26.16;100.00
13314;BME280;6725;48.112;11.604;2023-05-23T12:14:05;95149.72;;;26.05;100.00
13314;BME280;6725;48.112;11.604;2023-05-23T12:16:31;95150.19;;;25.87;100.00
13314;BME280;6725;48.112;11.604;2023-05-23T12:18:58;95152.22;;;25.70;100.00
13314;BME280;6725;48.112;11.604;2023-05-23T12:21:25;95147.38;;;25.54;100.00
13314;BME280;6725;48.112;11.604;2023-05-23T12:23:51;95150.47;;;26.00;100.00
13314;BME280;6725;48.112;11.604;2023-05-23T12:26:17;95157.53;;;26.45;100.00
13314;BME280;6725;48.112;11.604;2023-05-23T12:28:43;95167.97;;;26.56;100.00
13314;BME280;6725;48.112;11.604;2023-05-23T12:31:20;95162.63;;;26.52;100.00
13314;BME280;6725;48.112;11.604;2023-05-23T12:33:47;95166.25;;;26.03;100.00
13314;BME280;6725;48.112;11.604;2023-05-23T12:36:21;95168.53;;;26.05;100.00
13314;BME280;6725;48.112;11.604;2023-05-23T12:38:47;95169.78;;;25.65;100.00
13314;BME280;6725;48.112;11.604;2023-05-23T12:41:17;95161.38;;;25.71;100.00
13314;BME280;6725;48.112;11.604;2023-05-23T12:43:51;95155.56;;;25.96;100.00
13314;BME280;6725;48.112;11.604;2023-05-23T12:46:16;95147.59;;;25.51;100.00
13314;BME280;6725;48.112;11.604;2023-05-23T12:48:42;95161.59;;;25.45;100.00
13314;BME280;6725;48.112;11.604;2023-05-23T12:51:07;95163.22;;;24.98;100.00
13314;BME280;6725;48.112;11.604;2023-05-23T12:53:32;95163.94;;;24.88;100.00
13314;BME280;6725;48.112;11.604;2023-05-23T12:55:58;95163.63;;;24.33;100.00
13314;BME280;6725;48.112;11.604;2023-05-23T12:58:24;95169.59;;;24.15;100.00
13314;BME280;6725;48.112;11.604;2023-05-23T13:00:49;95160.44;;;23.83;100.00
13314;BME280;6725;48.112;11.604;2023-05-23T13:03:15;95169.59;;;24.15;100.00
13314;BME280;6725;48.112;11.604;2023-05-23T13:05:41;95158.53;;;24.31;100.00
13314;BME280;6725;48.112;11.604;2023-05-23T13:08:06;95151.91;;;24.71;100.00
13314;BME280;6725;48.112;11.604;2023-05-23T13:10:32;95156.34;;;25.05;100.00